Time;durP1;ratioP1;P1;durP2;ratioP2;P2;SDS_P1;SDS_P2;PMS_P1;PMS_P2;Temp;Humidity;BMP_temperature;BMP_pressure;BME280_temperature;BME280_humidity;BME280_pressure;Samples;Min_cycle;Max_cycle;Signal;HPM_P1;HPM_P2
2023/07/19 00:01:52;;;;;;;7.18;4.00;;;;;;;17.61;100.00;97066.44;5065605;28;20040;-57
2023/07/19 00:04:18;;;;;;;11.75;4.47;;;;;;;17.68;100.00;97055.84;5065900;28;20094;-57
2023/07/19 00:06:45;;;;;;;6.47;4.13;;;;;;;17.77;100.00;97061.44;5066651;28;20042;-56
2023/07/19 00:09:11;;;;;;;10.45;4.72;;;;;;;17.70;100.00;97067.31;5066328;28;20813;-55
2023/07/19 00:11:38;;;;;;;11.27;4.30;;;;;;;17.49;100.00;97067.75;5065509;28;20051;-56
2023/07/19 00:14:05;;;;;;;8.27;4.55;;;;;;;17.24;100.00;97060.84;5072374;28;20040;-57
2023/07/19 00:16:33;;;;;;;7.82;4.38;;;;;;;17.04;100.00;97071.03;5067510;28;20037;-56
2023/07/19 00:19:00;;;;;;;10.50;4.38;;;;;;;16.97;100.00;97057.75;5066922;28;20068;-55
2023/07/19 00:21:45;;;;;;;10.90;4.13;;;;;;;17.01;100.00;97050.59;5066138;28;20044;-56
2023/07/19 00:24:12;;;;;;;8.85;4.43;;;;;;;17.18;100.00;97046.47;5066296;28;20036;-56
2023/07/19 00:26:38;;;;;;;7.38;4.57;;;;;;;17.19;100.00;97044.53;5065130;28;20423;-56
2023/07/19 00:29:05;;;;;;;8.05;4.32;;;;;;;17.28;100.00;97050.91;5064426;28;20055;-55
2023/07/19 00:31:32;;;;;;;9.20;4.50;;;;;;;17.34;100.00;97046.16;5063682;28;20048;-55
2023/07/19 00:33:58;;;;;;;7.50;4.25;;;;;;;17.42;100.00;97034.50;5061367;28;20090;-56
2023/07/19 00:36:25;;;;;;;8.65;4.78;;;;;;;17.50;100.00;97039.25;5062753;28;20049;-55
2023/07/19 00:38:52;;;;;;;8.63;4.43;;;;;;;17.53;100.00;97035.91;5063571;28;20075;-55
2023/07/19 00:41:18;;;;;;;8.88;4.97;;;;;;;17.51;100.00;97040.88;5066936;28;20040;-56
2023/07/19 00:43:47;;;;;;;9.68;4.85;;;;;;;17.55;100.00;97044.63;5063958;28;20119;-54
2023/07/19 00:46:14;;;;;;;7.20;4.07;;;;;;;17.37;100.00;97032.69;5062631;28;20086;-55
2023/07/19 00:48:44;;;;;;;10.80;4.40;;;;;;;17.42;100.00;97029.84;5062785;28;20041;-55
2023/07/19 00:51:10;;;;;;;8.27;5.32;;;;;;;17.47;100.00;97028.91;5061992;28;20049;-56
2023/07/19 00:53:38;;;;;;;8.10;4.07;;;;;;;17.50;100.00;97036.53;5066428;28;20041;-55
2023/07/19 00:56:10;;;;;;;12.13;4.32;;;;;;;17.50;100.00;97038.44;5064104;28;20056;-56
2023/07/19 00:58:37;;;;;;;11.68;4.25;;;;;;;17.51;100.00;97035.41;5063065;28;20072;-56
2023/07/19 01:01:05;;;;;;;10.05;4.32;;;;;;;17.46;100.00;97042.94;5061855;28;20040;-56
2023/07/19 01:03:32;;;;;;;9.50;4.20;;;;;;;17.35;100.00;97028.63;5062054;28;20069;-55
2023/07/19 01:06:00;;;;;;;8.68;4.88;;;;;;;17.19;100.00;97045.34;5063786;28;20041;-57
2023/07/19 01:08:27;;;;;;;7.22;4.10;;;;;;;17.17;100.00;97039.38;5066107;28;20269;-56
2023/07/19 01:10:53;;;;;;;12.00;4.50;;;;;;;17.18;100.00;97037.44;5064819;28;20648;-53
2023/07/19 01:13:20;;;;;;;8.88;4.60;;;;;;;17.29;100.00;97033.41;5063483;28;20041;-54
2023/07/19 01:15:46;;;;;;;8.57;4.93;;;;;;;17.34;100.00;97041.50;5064161;28;20036;-56
2023/07/19 01:18:15;;;;;;;8.95;4.10;;;;;;;17.15;100.00;97044.34;5062149;28;20098;-55
2023/07/19 01:20:41;;;;;;;11.52;4.68;;;;;;;17.16;100.00;97044.03;5063416;28;20669;-55
2023/07/19 01:23:08;;;;;;;16.48;4.93;;;;;;;17.08;100.00;97044.75;5054498;28;20047;-55
2023/07/19 01:25:35;;;;;;;10.13;4.07;;;;;;;17.01;100.00;97047.84;5022818;28;1065362;-53
2023/07/19 01:28:02;;;;;;;9.23;4.57;;;;;;;16.98;100.00;97051.19;5064309;28;20108;-54
2023/07/19 01:30:29;;;;;;;10.25;3.97;;;;;;;16.99;100.00;97050.06;5064403;28;20512;-55
2023/07/19 01:32:56;;;;;;;9.45;4.30;;;;;;;16.98;100.00;97045.72;5063640;28;20127;-54
2023/07/19 01:35:23;;;;;;;10.63;4.53;;;;;;;16.98;100.00;97042.97;5062625;28;20036;-54
2023/07/19 01:37:49;;;;;;;13.40;5.18;;;;;;;17.00;100.00;97045.41;5063328;28;20041;-56
2023/07/19 01:40:16;;;;;;;9.65;4.45;;;;;;;17.05;100.00;97031.66;5062348;28;20040;-55
2023/07/19 01:42:42;;;;;;;8.55;4.50;;;;;;;16.73;100.00;97042.31;5060020;28;20386;-54
2023/07/19 01:45:09;;;;;;;11.88;4.40;;;;;;;16.68;100.00;97036.94;5062357;28;20036;-54
2023/07/19 01:47:36;;;;;;;12.40;3.97;;;;;;;16.50;100.00;97041.34;5064408;28;20522;-55
2023/07/19 01:50:03;;;;;;;10.75;4.65;;;;;;;16.40;100.00;97034.13;5062160;28;20047;-57
2023/07/19 01:52:29;;;;;;;8.82;4.05;;;;;;;16.40;100.00;97041.53;5066734;28;20047;-55
2023/07/19 01:54:56;;;;;;;11.15;4.22;;;;;;;16.08;100.00;97044.75;5063549;28;20047;-56
2023/07/19 01:57:23;;;;;;;10.18;4.60;;;;;;;15.71;100.00;97066.22;5063192;28;20040;-53
2023/07/19 01:59:49;;;;;;;12.02;4.60;;;;;;;15.65;100.00;97077.50;5063189;28;20530;-55
2023/07/19 02:02:16;;;;;;;8.27;4.50;;;;;;;15.70;100.00;97080.97;5062731;28;20051;-55
2023/07/19 02:04:43;;;;;;;11.35;4.72;;;;;;;15.71;100.00;97092.72;5062172;28;20127;-55
2023/07/19 02:07:10;;;;;;;12.00;5.32;;;;;;;15.82;100.00;97096.94;5062429;28;21598;-53
2023/07/19 02:09:36;;;;;;;11.45;5.55;;;;;;;15.90;100.00;97084.56;5063674;28;20389;-56
2023/07/19 02:12:03;;;;;;;12.57;5.35;;;;;;;15.90;100.00;97070.91;5065595;28;20583;-57
2023/07/19 02:14:30;;;;;;;8.23;4.28;;;;;;;15.79;100.00;97063.94;5060580;28;20136;-55
2023/07/19 02:16:56;;;;;;;11.80;4.97;;;;;;;15.64;100.00;97060.34;5062716;28;20047;-55
2023/07/19 02:19:23;;;;;;;14.05;4.93;;;;;;;15.53;100.00;97069.75;5062759;28;20056;-54
2023/07/19 02:21:51;;;;;;;10.85;5.53;;;;;;;15.42;100.00;97088.16;5061753;28;20037;-56
2023/07/19 02:24:18;;;;;;;13.93;5.85;;;;;;;15.37;100.00;97099.13;5063710;28;20136;-55
2023/07/19 02:26:47;;;;;;;16.80;5.00;;;;;;;15.47;100.00;97096.28;5060087;28;20537;-56
2023/07/19 02:29:14;;;;;;;13.10;5.15;;;;;;;15.54;100.00;97083.09;5062497;28;20044;-56
2023/07/19 02:31:42;;;;;;;13.73;5.47;;;;;;;15.64;100.00;97073.97;5064259;28;20503;-57
2023/07/19 02:34:10;;;;;;;10.20;4.47;;;;;;;15.74;100.00;97065.66;5062896;28;21432;-55
2023/07/19 02:36:37;;;;;;;11.25;4.80;;;;;;;15.83;100.00;97052.16;5063451;28;20040;-53
2023/07/19 02:39:04;;;;;;;12.65;4.80;;;;;;;15.91;100.00;97045.22;5060676;28;20503;-54
2023/07/19 02:41:31;;;;;;;10.00;4.72;;;;;;;15.71;100.00;97047.13;5061506;28;20503;-55
2023/07/19 02:43:59;;;;;;;13.73;4.43;;;;;;;15.76;100.00;97053.63;5061888;28;20121;-55
2023/07/19 02:46:26;;;;;;;9.60;4.68;;;;;;;15.78;100.00;97043.22;5062589;28;20044;-56
2023/07/19 02:48:52;;;;;;;13.73;4.25;;;;;;;15.65;100.00;97042.03;5062267;28;20094;-57
2023/07/19 02:51:19;;;;;;;10.98;4.13;;;;;;;15.59;100.00;97039.38;5062640;28;20041;-56
2023/07/19 02:53:49;;;;;;;10.40;4.30;;;;;;;15.63;100.00;97047.81;5061450;28;20051;-57
2023/07/19 02:56:15;;;;;;;9.40;3.85;;;;;;;15.67;100.00;97048.81;5061812;28;20127;-55
2023/07/19 02:58:42;;;;;;;11.98;4.30;;;;;;;15.72;100.00;97050.66;5064669;28;20513;-55
2023/07/19 03:01:09;;;;;;;8.38;3.53;;;;;;;15.76;100.00;97050.88;5062109;28;20044;-56
2023/07/19 03:03:35;;;;;;;11.52;4.72;;;;;;;15.78;100.00;97048.69;5060217;28;20119;-55
2023/07/19 03:06:02;;;;;;;10.15;3.33;;;;;;;15.87;100.00;97052.38;5061123;28;20500;-54
2023/07/19 03:08:29;;;;;;;12.30;3.88;;;;;;;15.96;100.00;97052.56;5061364;28;21663;-56
2023/07/19 03:10:55;;;;;;;9.60;3.75;;;;;;;16.14;100.00;97061.06;5063521;28;20048;-56
2023/07/19 03:13:22;;;;;;;11.55;4.03;;;;;;;16.05;100.00;97064.44;5062173;28;20565;-56
2023/07/19 03:15:50;;;;;;;13.75;3.60;;;;;;;15.98;100.00;97067.56;5060553;28;20066;-56
2023/07/19 03:18:16;;;;;;;8.52;3.85;;;;;;;15.98;100.00;97067.56;5063556;28;20063;-56
2023/07/19 03:20:43;;;;;;;12.18;4.90;;;;;;;15.95;100.00;97070.84;5061656;28;20140;-56
2023/07/19 03:23:10;;;;;;;7.53;3.42;;;;;;;15.80;100.00;97069.13;5057964;28;20055;-57
2023/07/19 03:25:37;;;;;;;9.52;3.90;;;;;;;15.78;100.00;97071.34;5062126;28;20111;-54
2023/07/19 03:28:04;;;;;;;6.75;3.70;;;;;;;15.78;100.00;97078.72;5060410;28;20040;-56
2023/07/19 03:30:30;;;;;;;9.45;3.88;;;;;;;15.79;100.00;97077.59;5060768;28;20055;-57
2023/07/19 03:32:58;;;;;;;10.88;4.40;;;;;;;15.73;100.00;97080.41;5059234;28;20036;-55
2023/07/19 03:35:25;;;;;;;13.30;4.18;;;;;;;15.70;100.00;97080.97;5060896;28;20033;-56
2023/07/19 03:37:51;;;;;;;11.23;4.78;;;;;;;15.67;100.00;97078.84;5062712;28;20602;-56
2023/07/19 03:40:18;;;;;;;8.38;3.97;;;;;;;15.73;100.00;97080.41;5061844;28;20044;-56
2023/07/19 03:42:45;;;;;;;10.57;4.47;;;;;;;15.78;100.00;97082.28;5058220;28;20562;-55
2023/07/19 03:45:12;;;;;;;7.75;3.33;;;;;;;15.82;100.00;97079.75;5058561;28;20059;-54
2023/07/19 03:47:39;;;;;;;11.90;3.70;;;;;;;15.80;100.00;97084.69;5061359;28;20045;-53
2023/07/19 03:50:07;;;;;;;8.63;3.47;;;;;;;15.88;100.00;97085.97;5055893;28;20056;-56
2023/07/19 03:52:34;;;;;;;6.40;4.03;;;;;;;15.81;100.00;97081.66;5058012;28;20595;-56
2023/07/19 03:55:03;;;;;;;6.75;3.53;;;;;;;15.78;100.00;97082.28;5059338;28;20048;-57
2023/07/19 03:57:33;;;;;;;8.27;3.45;;;;;;;15.81;100.00;97080.88;5058243;28;20047;-56
2023/07/19 04:00:00;;;;;;;6.70;3.80;;;;;;;15.90;100.00;97089.19;5058182;28;20431;-54
2023/07/19 04:02:29;;;;;;;7.68;3.60;;;;;;;15.98;100.00;97094.84;5058090;28;20048;-56
2023/07/19 04:04:56;;;;;;;8.43;3.92;;;;;;;16.00;100.00;97089.09;5060824;28;20039;-56
2023/07/19 04:07:22;;;;;;;8.52;3.65;;;;;;;16.01;100.00;97090.72;5058172;28;20696;-56
2023/07/19 04:09:49;;;;;;;9.20;4.10;;;;;;;16.02;100.00;97089.59;5061159;28;20058;-56
2023/07/19 04:12:16;;;;;;;9.85;3.90;;;;;;;16.07;100.00;97089.53;5058675;28;20064;-56
2023/07/19 04:14:43;;;;;;;9.38;3.70;;;;;;;16.07;100.00;97089.53;5058666;28;20044;-57
2023/07/19 04:17:10;;;;;;;9.98;3.63;;;;;;;16.14;100.00;97083.69;5058515;28;20533;-56
2023/07/19 04:19:37;;;;;;;7.53;3.38;;;;;;;16.13;100.00;97093.00;5062251;28;20507;-56
2023/07/19 04:22:04;;;;;;;10.98;5.05;;;;;;;16.01;100.00;97085.25;5063778;28;20139;-56
2023/07/19 04:24:31;;;;;;;10.77;3.92;;;;;;;16.08;100.00;97091.19;5063512;28;20054;-55
2023/07/19 04:26:57;;;;;;;9.35;4.50;;;;;;;16.06;100.00;97098.00;5061666;28;20166;-43
2023/07/19 04:29:24;;;;;;;11.82;4.95;;;;;;;16.06;100.00;97089.81;5062258;28;20051;-46
2023/07/19 04:31:51;;;;;;;8.27;3.95;;;;;;;16.01;100.00;97090.72;5062100;28;20079;-47
2023/07/19 04:34:18;;;;;;;8.85;3.83;;;;;;;16.03;100.00;97090.44;5061160;28;20040;-45
2023/07/19 04:36:45;;;;;;;11.20;3.88;;;;;;;16.07;100.00;97096.94;5063938;28;20040;-52
2023/07/19 04:39:11;;;;;;;9.63;3.88;;;;;;;16.06;100.00;97085.19;5062369;28;20052;-45
2023/07/19 04:41:39;;;;;;;12.27;4.45;;;;;;;16.11;100.00;97087.03;5062577;28;20055;-45
2023/07/19 04:44:06;;;;;;;10.52;5.20;;;;;;;16.16;100.00;97083.41;5060780;28;20087;-45
2023/07/19 04:46:32;;;;;;;9.32;4.05;;;;;;;16.24;100.00;97088.19;5064097;28;20054;-47
2023/07/19 04:48:59;;;;;;;8.73;3.95;;;;;;;16.32;100.00;97087.53;5061609;28;20047;-46
2023/07/19 04:51:26;;;;;;;8.15;3.97;;;;;;;16.38;100.00;97085.53;5061504;28;20103;-44
2023/07/19 04:53:53;;;;;;;10.98;4.28;;;;;;;16.48;100.00;97082.63;5061356;28;20036;-51
2023/07/19 04:56:20;;;;;;;9.05;3.80;;;;;;;16.62;100.00;97079.16;5062790;28;20048;-50
2023/07/19 04:58:47;;;;;;;8.05;3.80;;;;;;;16.77;100.00;97080.81;5062477;28;20041;-48
2023/07/19 05:01:13;;;;;;;7.70;3.50;;;;;;;16.87;100.00;97068.88;5060782;28;20186;-45
2023/07/19 05:03:41;;;;;;;7.43;4.05;;;;;;;16.99;100.00;97071.94;5061717;28;20109;-48
2023/07/19 05:06:08;;;;;;;11.25;3.80;;;;;;;17.15;99.75;97074.44;5062480;28;20403;-49
2023/07/19 05:08:35;;;;;;;8.13;3.72;;;;;;;17.22;99.70;97057.63;5061464;28;20044;-46
2023/07/19 05:11:02;;;;;;;9.27;4.55;;;;;;;17.22;99.29;97063.91;5061116;28;20493;-50
2023/07/19 05:13:29;;;;;;;5.47;3.38;;;;;;;17.31;99.04;97063.19;5063259;28;20135;-47
2023/07/19 05:15:56;;;;;;;7.82;3.80;;;;;;;17.41;99.06;97057.50;5058575;28;20120;-49
2023/07/19 05:18:23;;;;;;;7.78;3.42;;;;;;;17.52;98.56;97056.19;5061117;28;20825;-46
2023/07/19 05:20:49;;;;;;;10.00;3.65;;;;;;;17.53;98.67;97057.00;5062749;28;20049;-48
2023/07/19 05:23:16;;;;;;;7.22;3.65;;;;;;;17.64;98.12;97055.66;5061089;28;20040;-44
2023/07/19 05:25:43;;;;;;;8.90;4.30;;;;;;;17.79;97.57;97054.53;5062432;28;20051;-45
2023/07/19 05:28:09;;;;;;;6.28;3.10;;;;;;;17.98;96.65;97052.78;5062034;28;20045;-47
2023/07/19 05:30:36;;;;;;;8.38;3.33;;;;;;;18.14;95.66;97056.00;5060664;28;20041;-46
2023/07/19 05:33:02;;;;;;;8.30;3.72;;;;;;;18.20;94.75;97055.56;5060576;28;20054;-45
2023/07/19 05:35:32;;;;;;;9.15;3.60;;;;;;;18.37;93.81;97051.34;5064230;28;20044;-46
2023/07/19 05:37:58;;;;;;;6.35;3.38;;;;;;;18.56;93.01;97056.63;5061488;28;20098;-46
2023/07/19 05:40:26;;;;;;;8.13;3.15;;;;;;;18.76;91.28;97048.22;5061917;28;20052;-49
2023/07/19 05:42:52;;;;;;;6.70;3.00;;;;;;;18.84;90.68;97053.72;5061655;28;20449;-48
2023/07/19 05:45:19;;;;;;;8.43;3.55;;;;;;;19.02;89.64;97061.25;5059772;28;20547;-47
2023/07/19 05:47:45;;;;;;;8.73;3.25;;;;;;;19.16;89.17;97061.19;5061184;28;20044;-46
2023/07/19 05:50:12;;;;;;;6.70;2.90;;;;;;;19.29;88.35;97060.28;5061379;28;20072;-45
2023/07/19 05:52:39;;;;;;;6.80;3.30;;;;;;;19.45;87.34;97065.31;5062484;28;20043;-43
2023/07/19 05:55:07;;;;;;;8.85;3.30;;;;;;;19.58;87.68;97064.41;5059422;28;20044;-46
2023/07/19 05:57:34;;;;;;;9.68;3.05;;;;;;;19.70;85.52;97065.72;5062042;28;20143;-44
2023/07/19 06:00:06;;;;;;;7.10;3.33;;;;;;;19.89;84.11;97069.00;5061164;28;20114;-44
2023/07/19 06:02:45;;;;;;;6.65;2.83;;;;;;;20.10;83.08;97070.31;5060465;28;20078;-46
2023/07/19 06:05:23;;;;;;;5.90;3.25;;;;;;;20.25;80.94;97075.34;5060145;28;20037;-45
2023/07/19 06:07:50;;;;;;;8.02;3.15;;;;;;;20.38;79.73;97078.28;5065850;28;20033;-44
2023/07/19 06:10:17;;;;;;;6.85;3.10;;;;;;;20.50;80.29;97081.16;5059555;28;20036;-47
2023/07/19 06:12:45;;;;;;;5.13;2.55;;;;;;;20.58;78.75;97085.03;5063992;28;20127;-48
2023/07/19 06:15:11;;;;;;;7.10;2.80;;;;;;;20.75;76.41;97084.19;5060450;28;20072;-48
2023/07/19 06:17:42;;;;;;;5.22;2.67;;;;;;;20.87;74.78;97088.25;5064417;28;20040;-48
2023/07/19 06:20:13;;;;;;;7.50;2.90;;;;;;;20.92;75.17;97093.59;5060210;28;20072;-43
2023/07/19 06:22:40;;;;;;;11.10;3.13;;;;;;;20.98;74.41;97097.81;5063121;28;20523;-56
2023/07/19 06:25:07;;;;;;;7.15;2.92;;;;;;;21.08;73.99;97098.59;5059449;28;20660;-56
2023/07/19 06:27:33;;;;;;;5.18;2.95;;;;;;;21.19;75.11;97097.06;5058991;28;20040;-56
2023/07/19 06:30:00;;;;;;;7.47;3.03;;;;;;;21.30;72.82;97092.03;5062236;28;20046;-56
2023/07/19 06:32:27;;;;;;;8.18;3.05;;;;;;;21.44;72.70;97100.06;5060206;28;20060;-55
2023/07/19 06:34:53;;;;;;;6.05;3.22;;;;;;;21.50;73.98;97095.19;5062336;28;20511;-55
2023/07/19 06:37:20;;;;;;;7.13;2.85;;;;;;;21.65;70.56;97094.63;5059693;28;20056;-56
2023/07/19 06:39:48;;;;;;;5.53;3.05;;;;;;;21.81;70.98;97103.16;5063278;28;20039;-55
2023/07/19 06:42:14;;;;;;;5.40;3.05;;;;;;;21.95;70.04;97094.66;5061131;28;20048;-54
2023/07/19 06:44:41;;;;;;;7.43;2.78;;;;;;;22.00;66.04;97090.88;5062630;28;20085;-55
2023/07/19 06:47:07;;;;;;;8.30;2.78;;;;;;;22.15;63.79;97099.72;5062079;28;20049;-54
2023/07/19 06:49:34;;;;;;;7.07;2.67;;;;;;;22.19;61.27;97101.44;5060271;28;20400;-56
2023/07/19 06:52:01;;;;;;;4.65;2.03;;;;;;;22.34;61.47;97107.53;5060256;28;20048;-57
2023/07/19 06:54:27;;;;;;;13.38;2.58;;;;;;;22.41;59.43;97104.22;5060081;28;20072;-55
2023/07/19 06:56:54;;;;;;;7.85;2.00;;;;;;;22.52;58.48;97102.66;5057633;28;20488;-57
2023/07/19 06:59:20;;;;;;;8.43;2.33;;;;;;;22.56;56.92;97100.06;5060034;28;20040;-55
2023/07/19 07:01:47;;;;;;;3.80;2.20;;;;;;;22.52;56.41;97104.63;5060887;28;20044;-57
2023/07/19 07:04:13;;;;;;;10.38;3.25;;;;;;;22.57;56.18;97113.53;5059533;28;20483;-57
2023/07/19 07:06:40;;;;;;;5.03;2.53;;;;;;;22.64;56.87;97103.88;5062190;28;20037;-57
2023/07/19 07:09:07;;;;;;;6.22;1.90;;;;;;;22.66;55.06;97110.69;5060599;28;20131;-54
2023/07/19 07:11:33;;;;;;;8.30;2.30;;;;;;;22.67;54.08;97104.00;5062351;28;20139;-57
2023/07/19 07:14:00;;;;;;;5.63;2.28;;;;;;;22.67;53.64;97106.78;5062701;28;20538;-57
2023/07/19 07:16:28;;;;;;;4.65;1.75;;;;;;;22.77;52.45;97107.53;5060434;28;20487;-55
2023/07/19 07:18:54;;;;;;;4.15;1.80;;;;;;;22.79;52.21;97106.03;5061451;28;20105;-53
2023/07/19 07:21:22;;;;;;;3.88;1.70;;;;;;;22.84;50.90;97108.56;5060429;28;20044;-55
2023/07/19 07:23:49;;;;;;;7.80;2.13;;;;;;;22.99;51.92;97096.09;5060520;28;20452;-56
2023/07/19 07:26:15;;;;;;;3.55;1.50;;;;;;;23.03;49.83;97096.19;5059394;28;20834;-57
2023/07/19 07:28:42;;;;;;;3.38;1.60;;;;;;;23.13;48.93;97092.19;5060010;28;20037;-57
2023/07/19 07:31:11;;;;;;;4.32;2.13;;;;;;;23.17;48.78;97095.88;5062275;28;20094;-57
2023/07/19 07:33:39;;;;;;;3.47;1.60;;;;;;;23.27;49.02;97094.66;5058982;28;20036;-56
2023/07/19 07:36:05;;;;;;;3.38;1.60;;;;;;;23.33;47.09;97098.78;5062630;28;20043;-56
2023/07/19 07:38:33;;;;;;;8.05;1.75;;;;;;;23.41;48.24;97090.78;5061083;28;20074;-56
2023/07/19 07:41:06;;;;;;;5.28;1.52;;;;;;;23.46;45.94;97102.41;5065311;28;20055;-55
2023/07/19 07:43:33;;;;;;;4.32;1.50;;;;;;;23.44;46.50;97099.16;5059880;28;20054;-54
2023/07/19 07:46:00;;;;;;;4.75;1.77;;;;;;;23.51;46.58;97109.66;5062215;28;20669;-56
2023/07/19 07:48:27;;;;;;;4.35;1.67;;;;;;;23.63;46.97;97111.63;5057404;28;20059;-55
2023/07/19 07:50:53;;;;;;;6.80;1.95;;;;;;;23.62;46.26;97105.28;5058481;28;20052;-55
2023/07/19 07:53:21;;;;;;;5.55;1.60;;;;;;;23.58;46.21;97111.88;5059123;28;20044;-56
2023/07/19 07:55:48;;;;;;;3.50;1.70;;;;;;;23.56;46.53;97103.91;5064837;28;20128;-57
2023/07/19 07:58:16;;;;;;;4.75;1.88;;;;;;;23.62;46.17;97105.28;5065849;28;20071;-55
2023/07/19 08:00:44;;;;;;;4.07;1.75;;;;;;;23.68;45.95;97105.06;5066964;28;20051;-56
2023/07/19 08:03:11;;;;;;;7.25;2.10;;;;;;;23.73;46.02;97113.91;5065380;28;20039;-57
2023/07/19 08:05:38;;;;;;;9.68;2.25;;;;;;;23.90;45.36;97114.84;5065841;28;20040;-57
2023/07/19 08:08:06;;;;;;;6.47;1.92;;;;;;;24.02;44.13;97120.38;5062592;28;20160;-55
2023/07/19 08:10:33;;;;;;;5.20;2.38;;;;;;;24.03;45.20;97113.66;5063392;28;20091;-56
2023/07/19 08:12:59;;;;;;;6.43;1.60;;;;;;;24.06;44.01;97116.91;5061536;28;20119;-57
2023/07/19 08:15:26;;;;;;;3.65;1.60;;;;;;;24.06;43.68;97116.91;5063960;28;20052;-57
2023/07/19 08:17:52;;;;;;;3.45;1.30;;;;;;;24.12;44.57;97116.34;5064225;28;20071;-56
2023/07/19 08:20:19;;;;;;;5.28;1.48;;;;;;;24.27;44.76;97122.31;5064592;28;20041;-56
2023/07/19 08:22:46;;;;;;;2.92;1.33;;;;;;;24.21;41.89;97113.44;5066010;28;20032;-55
2023/07/19 08:25:16;;;;;;;4.47;1.52;;;;;;;24.23;41.67;97119.44;5062222;28;20044;-55
2023/07/19 08:27:52;;;;;;;4.60;1.30;;;;;;;24.42;41.27;97118.00;5063524;28;20052;-53
2023/07/19 08:30:19;;;;;;;3.15;1.30;;;;;;;24.51;41.85;97115.09;5062904;28;20060;-55
2023/07/19 08:32:46;;;;;;;3.90;1.42;;;;;;;24.56;42.70;97109.31;5063893;28;20036;-56
2023/07/19 08:35:14;;;;;;;4.38;1.77;;;;;;;24.66;41.23;97110.78;5067218;28;20044;-54
2023/07/19 08:37:44;;;;;;;3.38;1.42;;;;;;;24.67;40.86;97107.66;5063648;28;20044;-55
2023/07/19 08:40:16;;;;;;;4.07;1.40;;;;;;;24.68;39.00;97094.63;5064377;28;20048;-54
2023/07/19 08:42:43;;;;;;;5.15;1.60;;;;;;;24.53;39.80;97108.06;5063609;28;20036;-55
2023/07/19 08:45:11;;;;;;;3.75;1.30;;;;;;;24.55;38.78;97107.72;5062832;28;20809;-54
2023/07/19 08:47:39;;;;;;;4.72;1.95;;;;;;;24.52;38.61;97106.47;5064769;28;20044;-55
2023/07/19 08:50:09;;;;;;;3.15;1.30;;;;;;;24.44;37.88;97107.41;5063537;28;20105;-55
2023/07/19 08:52:36;;;;;;;3.42;1.67;;;;;;;24.54;39.21;97092.25;5064533;28;20040;-55
2023/07/19 08:55:03;;;;;;;3.03;1.38;;;;;;;24.73;38.68;97099.09;5063087;28;20044;-52
2023/07/19 08:57:32;;;;;;;4.32;1.30;;;;;;;24.81;37.07;97092.63;5064526;28;20040;-56
2023/07/19 08:59:58;;;;;;;2.67;1.05;;;;;;;24.87;36.89;97093.19;5065857;28;20036;-56
2023/07/19 09:02:25;;;;;;;3.22;1.30;;;;;;;25.09;39.02;97094.56;5064921;28;20044;-56
2023/07/19 09:05:11;;;;;;;7.57;1.30;;;;;;;25.16;38.42;97094.75;5063605;28;20048;-56
2023/07/19 09:07:39;;;;;;;4.25;1.25;;;;;;;25.22;36.98;97086.19;5062899;28;20036;-54
2023/07/19 09:10:08;;;;;;;2.85;1.40;;;;;;;25.04;37.96;97094.81;5064236;28;20043;-56
2023/07/19 09:12:39;;;;;;;4.22;1.55;;;;;;;25.00;38.46;97091.97;5061765;28;20201;-56
2023/07/19 09:15:07;;;;;;;3.08;1.58;;;;;;;25.05;39.09;97080.63;5063084;28;20055;-56
2023/07/19 09:17:40;;;;;;;10.25;1.67;;;;;;;25.13;38.57;97083.59;5063348;28;20115;-55
2023/07/19 09:20:08;;;;;;;4.30;1.60;;;;;;;25.11;37.75;97069.28;5061537;28;20055;-56
2023/07/19 09:22:36;;;;;;;3.88;1.45;;;;;;;25.12;38.22;97073.66;5060076;28;20515;-56
2023/07/19 09:25:05;;;;;;;4.38;1.38;;;;;;;25.19;37.84;97073.84;5064798;28;20044;-54
2023/07/19 09:27:32;;;;;;;2.53;1.08;;;;;;;25.10;36.72;97071.25;5062762;28;20113;-54
2023/07/19 09:30:00;;;;;;;5.28;1.30;;;;;;;25.20;37.51;97069.91;5065303;28;20040;-53
2023/07/19 09:32:26;;;;;;;5.50;1.38;;;;;;;25.25;36.84;97068.84;5062304;28;20118;-54
2023/07/19 09:34:55;;;;;;;5.78;1.20;;;;;;;25.21;37.67;97054.91;5062573;28;20132;-54
2023/07/19 09:37:23;;;;;;;4.43;1.42;;;;;;;25.34;38.41;97063.94;5061796;28;20076;-56
2023/07/19 09:39:50;;;;;;;4.80;1.30;;;;;;;25.49;37.61;97070.63;5061713;28;20546;-56
2023/07/19 09:42:18;;;;;;;3.63;1.45;;;;;;;25.55;37.22;97066.44;5062345;28;20500;-53
2023/07/19 09:44:46;;;;;;;6.30;2.45;;;;;;;25.47;37.31;97053.56;5063753;28;20052;-55
2023/07/19 09:47:14;;;;;;;4.97;1.25;;;;;;;25.52;37.06;97055.25;5059561;28;20036;-56
2023/07/19 09:49:55;;;;;;;6.53;1.77;;;;;;;25.48;36.36;97059.91;5063413;28;20059;-55
2023/07/19 09:52:24;;;;;;;7.07;1.23;;;;;;;25.55;37.63;97052.56;5060598;28;20045;-56
2023/07/19 09:54:53;;;;;;;4.97;1.45;;;;;;;25.70;38.65;97061.25;5062437;28;20056;-55
2023/07/19 09:57:23;;;;;;;5.93;1.63;;;;;;;25.33;36.79;97049.25;5060247;28;22155;-54
2023/07/19 09:59:51;;;;;;;5.53;1.33;;;;;;;25.45;37.24;97044.78;5062549;28;20392;-55
2023/07/19 10:02:21;;;;;;;3.30;1.45;;;;;;;25.65;38.15;97044.91;5061875;28;20052;-56
2023/07/19 10:04:48;;;;;;;5.88;1.25;;;;;;;25.68;37.73;97038.63;5061476;28;20059;-54
2023/07/19 10:07:25;;;;;;;4.70;1.50;;;;;;;25.53;36.16;97034.66;5061214;28;20067;-56
2023/07/19 10:10:13;;;;;;;2.65;1.05;;;;;;;25.80;36.02;97043.25;5059334;28;20127;-54
2023/07/19 10:12:46;;;;;;;5.30;1.30;;;;;;;25.92;36.32;97042.31;5062957;28;20126;-56
2023/07/19 10:15:14;;;;;;;3.35;1.38;;;;;;;25.97;36.36;97036.50;5059436;28;20051;-56
2023/07/19 10:17:53;;;;;;;4.82;1.50;;;;;;;26.29;35.62;97041.97;5059706;28;20407;-56
2023/07/19 10:20:27;;;;;;;3.15;1.52;;;;;;;26.21;35.47;97042.94;5061273;28;20078;-56
2023/07/19 10:22:59;;;;;;;4.70;1.63;;;;;;;26.52;37.01;97043.19;5061229;28;20040;-56
2023/07/19 10:25:44;;;;;;;3.45;1.40;;;;;;;26.42;35.28;97034.28;5061241;28;20517;-55
2023/07/19 10:28:12;;;;;;;3.28;1.23;;;;;;;26.29;37.40;97033.63;5059943;28;20151;-55
2023/07/19 10:30:42;;;;;;;3.30;1.38;;;;;;;26.15;37.45;97041.63;5061549;28;20057;-56
2023/07/19 10:33:09;;;;;;;2.97;1.27;;;;;;;26.48;36.78;97034.78;5064770;28;20043;-56
2023/07/19 10:35:36;;;;;;;6.88;1.98;;;;;;;26.67;36.73;97036.75;5060539;28;20611;-56
2023/07/19 10:38:03;;;;;;;3.83;1.30;;;;;;;26.68;36.83;97035.56;5060323;28;20059;-57
2023/07/19 10:40:34;;;;;;;7.28;1.58;;;;;;;26.58;36.85;97025.88;5060010;28;20559;-60
2023/07/19 10:43:02;;;;;;;6.13;1.40;;;;;;;26.76;37.06;97033.75;5059769;28;20045;-56
2023/07/19 10:45:29;;;;;;;3.95;1.70;;;;;;;26.93;36.10;97031.66;5059026;28;20124;-56
2023/07/19 10:47:59;;;;;;;2.20;1.02;;;;;;;26.93;35.06;97023.34;5058887;28;20040;-55
2023/07/19 10:50:26;;;;;;;4.40;1.50;;;;;;;26.85;36.16;97034.31;5059745;28;20675;-54
2023/07/19 10:52:53;;;;;;;3.05;1.05;;;;;;;26.95;36.49;97015.44;5059573;28;20040;-55
2023/07/19 10:55:19;;;;;;;5.45;1.48;;;;;;;26.83;36.38;97027.53;5059660;28;20049;-57
2023/07/19 10:58:06;;;;;;;3.75;1.48;;;;;;;26.98;35.69;97025.84;5060976;28;20033;-56
2023/07/19 11:00:35;;;;;;;5.75;1.73;;;;;;;26.74;35.84;97028.56;5061591;28;20040;-55
2023/07/19 11:03:01;;;;;;;4.80;1.60;;;;;;;26.93;36.34;97023.34;5060322;28;20520;-56
2023/07/19 11:05:28;;;;;;;5.53;1.63;;;;;;;27.12;36.53;97028.06;5058811;28;20048;-55
2023/07/19 11:07:55;;;;;;;7.15;1.90;;;;;;;26.91;34.89;97017.34;5062104;28;20037;-56
2023/07/19 11:10:21;;;;;;;5.22;2.20;;;;;;;26.87;35.00;97014.50;5060433;28;20048;-56
2023/07/19 11:12:48;;;;;;;3.55;1.50;;;;;;;27.21;36.20;97011.13;5061144;28;20456;-57
2023/07/19 11:15:16;;;;;;;4.30;1.70;;;;;;;27.33;34.26;97016.50;5059082;28;20541;-57
2023/07/19 11:17:43;;;;;;;5.30;1.67;;;;;;;27.43;33.58;97008.69;5058965;28;20114;-57
2023/07/19 11:20:10;;;;;;;6.72;1.70;;;;;;;27.21;34.72;96995.25;5059280;28;20044;-56
2023/07/19 11:22:36;;;;;;;4.15;1.60;;;;;;;27.35;35.18;96991.88;5060642;28;20049;-56
2023/07/19 11:25:09;;;;;;;4.00;1.60;;;;;;;27.55;35.54;96993.75;5058275;28;20058;-56
2023/07/19 11:27:36;;;;;;;5.45;1.63;;;;;;;27.56;35.25;96995.38;5062625;28;20051;-57
2023/07/19 11:30:05;;;;;;;3.97;1.83;;;;;;;27.02;34.45;96996.13;5063488;28;20044;-57